createdAt,value
2022-12-31T00:01:52.198Z,3.98
2022-12-31T00:04:19.028Z,3.96
2022-12-31T00:06:47.428Z,3.93
2022-12-31T00:09:14.230Z,3.95
2022-12-31T00:11:41.302Z,3.85
2022-12-31T00:14:08.140Z,3.96
2022-12-31T00:16:38.334Z,3.91
2022-12-31T00:19:06.845Z,3.88
2022-12-31T00:21:34.535Z,3.93
2022-12-31T00:24:02.823Z,3.89
2022-12-31T00:26:32.482Z,4.05
2022-12-31T00:29:00.619Z,3.93
2022-12-31T00:31:31.210Z,3.92
2022-12-31T00:33:58.880Z,3.86
2022-12-31T00:36:34.849Z,3.78
2022-12-31T00:39:03.325Z,3.77
2022-12-31T00:41:31.439Z,3.83
2022-12-31T00:43:58.642Z,3.85
2022-12-31T00:46:26.481Z,3.83
2022-12-31T00:48:53.755Z,3.84
2022-12-31T00:51:23.001Z,3.87
2022-12-31T00:53:50.348Z,3.85
2022-12-31T00:56:23.204Z,3.90
2022-12-31T00:58:50.444Z,3.85
2022-12-31T01:01:24.395Z,3.83
2022-12-31T01:03:52.253Z,3.84
2022-12-31T01:06:20.279Z,3.83
2022-12-31T01:08:49.715Z,3.88
2022-12-31T01:11:20.442Z,3.85
2022-12-31T01:13:49.647Z,3.81
2022-12-31T01:16:18.632Z,3.74
2022-12-31T01:18:45.693Z,3.75
2022-12-31T01:21:13.812Z,3.78
2022-12-31T01:23:41.111Z,3.80
2022-12-31T01:26:10.645Z,3.84
2022-12-31T01:28:37.446Z,3.85
2022-12-31T01:31:07.546Z,3.87
2022-12-31T01:33:35.004Z,3.90
2022-12-31T01:36:12.444Z,3.83
2022-12-31T01:38:40.447Z,3.88
2022-12-31T01:41:11.460Z,3.83
2022-12-31T01:44:18.135Z,3.89
2022-12-31T01:46:46.853Z,3.85
2022-12-31T01:49:20.612Z,3.92
2022-12-31T01:51:55.801Z,3.94
2022-12-31T01:54:25.849Z,3.90
2022-12-31T01:56:55.255Z,3.95
2022-12-31T01:59:26.851Z,3.94
2022-12-31T02:01:54.711Z,3.90
2022-12-31T02:04:24.084Z,3.98
2022-12-31T02:06:58.570Z,3.97
2022-12-31T02:09:25.498Z,4.02
2022-12-31T02:11:53.171Z,3.94
2022-12-31T02:14:27.950Z,3.94
2022-12-31T02:17:19.577Z,3.97
2022-12-31T02:19:55.438Z,3.95
2022-12-31T02:22:50.416Z,3.98
2022-12-31T02:26:03.101Z,3.99
2022-12-31T02:28:54.278Z,4.00
2022-12-31T02:31:34.756Z,3.95
2022-12-31T02:34:14.030Z,3.91
2022-12-31T02:36:45.073Z,3.91
2022-12-31T02:39:13.968Z,3.89
2022-12-31T02:41:49.975Z,3.93
2022-12-31T02:44:38.518Z,3.93
2022-12-31T02:47:08.084Z,3.93
2022-12-31T02:50:12.644Z,3.91
2022-12-31T02:52:54.254Z,3.98
2022-12-31T02:55:33.618Z,4.02
2022-12-31T02:58:50.050Z,4.02
2022-12-31T03:01:42.476Z,4.04
2022-12-31T03:04:28.672Z,4.02
2022-12-31T03:06:55.812Z,3.99
2022-12-31T03:09:22.749Z,4.00
2022-12-31T03:12:08.554Z,4.00
2022-12-31T03:14:35.337Z,4.12
2022-12-31T03:17:02.417Z,4.01
2022-12-31T03:19:47.713Z,4.01
2022-12-31T03:22:30.191Z,3.95
2022-12-31T03:25:17.417Z,3.99
2022-12-31T03:27:45.537Z,4.05
2022-12-31T03:30:14.164Z,4.03
2022-12-31T03:32:42.951Z,4.05
2022-12-31T03:35:12.119Z,4.01
2022-12-31T03:37:40.657Z,3.99
2022-12-31T03:40:10.359Z,3.98
2022-12-31T03:42:37.541Z,3.97
2022-12-31T03:45:05.207Z,4.00
2022-12-31T03:47:32.457Z,3.97
2022-12-31T03:49:59.298Z,3.95
2022-12-31T03:52:26.350Z,3.97
2022-12-31T03:54:53.129Z,4.00
2022-12-31T03:57:20.316Z,4.00
2022-12-31T03:59:47.077Z,4.00
2022-12-31T04:02:14.324Z,4.01
2022-12-31T04:04:41.197Z,4.00
2022-12-31T04:07:08.357Z,4.03
2022-12-31T04:09:35.192Z,4.03
2022-12-31T04:12:02.516Z,4.01
2022-12-31T04:14:29.340Z,4.04
2022-12-31T04:16:56.448Z,4.08
2022-12-31T04:19:23.261Z,4.08
2022-12-31T04:21:50.384Z,4.10
2022-12-31T04:24:17.159Z,4.06
2022-12-31T04:26:44.249Z,4.08
2022-12-31T04:29:11.196Z,4.10
2022-12-31T04:31:38.261Z,4.13
2022-12-31T04:34:05.210Z,4.11
2022-12-31T04:36:32.360Z,4.10
2022-12-31T04:38:59.159Z,4.11
2022-12-31T04:41:27.181Z,4.11
2022-12-31T04:43:56.654Z,4.15
2022-12-31T04:46:29.591Z,4.14
2022-12-31T04:48:56.511Z,4.16
2022-12-31T04:51:25.248Z,4.13
2022-12-31T04:53:52.498Z,4.13
2022-12-31T04:56:19.704Z,4.16
2022-12-31T04:58:46.720Z,4.24
2022-12-31T05:01:15.022Z,4.25
2022-12-31T05:03:42.588Z,4.21
2022-12-31T05:06:16.229Z,4.22
2022-12-31T05:08:43.204Z,4.23
2022-12-31T05:11:10.736Z,4.19
2022-12-31T05:13:37.953Z,4.20
2022-12-31T05:16:05.956Z,4.23
2022-12-31T05:18:33.196Z,4.17
2022-12-31T05:21:00.655Z,4.16
2022-12-31T05:23:27.974Z,4.20
2022-12-31T05:25:55.239Z,4.18
2022-12-31T05:28:22.173Z,4.19
2022-12-31T05:30:50.809Z,4.17
2022-12-31T05:33:18.911Z,4.07
2022-12-31T05:35:46.402Z,4.12
2022-12-31T05:38:13.180Z,4.12
2022-12-31T05:40:40.251Z,4.22
2022-12-31T05:43:07.134Z,4.18
2022-12-31T05:45:34.233Z,4.17
2022-12-31T05:48:01.843Z,4.14
2022-12-31T05:50:29.085Z,4.19
2022-12-31T05:52:55.995Z,4.26
2022-12-31T05:55:23.509Z,4.26
2022-12-31T05:57:50.288Z,4.22
2022-12-31T06:00:17.649Z,4.19
2022-12-31T06:02:44.509Z,4.18
2022-12-31T06:05:12.331Z,4.16
2022-12-31T06:07:39.129Z,4.22
2022-12-31T06:10:06.973Z,4.22
2022-12-31T06:12:33.811Z,4.16
2022-12-31T06:15:00.895Z,4.10
2022-12-31T06:17:29.290Z,4.12
2022-12-31T06:19:56.488Z,4.10
2022-12-31T06:22:23.255Z,4.09
2022-12-31T06:24:50.338Z,4.15
2022-12-31T06:27:17.141Z,4.24
2022-12-31T06:29:45.769Z,4.23
2022-12-31T06:32:12.625Z,4.18
2022-12-31T06:34:39.699Z,4.16
2022-12-31T06:37:06.469Z,4.15
2022-12-31T06:39:33.596Z,4.18
2022-12-31T06:42:00.355Z,4.17
2022-12-31T06:44:27.500Z,4.15
2022-12-31T06:46:54.366Z,4.18
2022-12-31T06:49:21.397Z,4.19
2022-12-31T06:51:48.197Z,4.19
2022-12-31T06:54:15.263Z,4.16
2022-12-31T06:56:42.564Z,4.13
2022-12-31T06:59:24.425Z,4.09
2022-12-31T07:02:04.659Z,4.07
2022-12-31T07:05:10.129Z,4.18
2022-12-31T07:08:07.811Z,4.18
2022-12-31T07:10:54.089Z,4.19
2022-12-31T07:13:30.081Z,4.21
2022-12-31T07:16:16.595Z,4.22
2022-12-31T07:18:50.759Z,4.13
2022-12-31T07:21:25.262Z,4.12
2022-12-31T07:23:52.312Z,4.18
2022-12-31T07:26:31.496Z,4.21
2022-12-31T07:29:07.247Z,4.21
2022-12-31T07:31:37.278Z,4.27
2022-12-31T07:34:45.740Z,4.20
2022-12-31T07:37:27.339Z,4.21
2022-12-31T07:39:59.815Z,4.26
2022-12-31T07:43:04.439Z,4.37
2022-12-31T07:45:33.951Z,4.35
2022-12-31T07:48:02.961Z,4.33
2022-12-31T07:50:30.461Z,4.32
2022-12-31T07:52:57.922Z,4.34
2022-12-31T07:55:24.709Z,4.34
2022-12-31T07:58:01.206Z,4.40
2022-12-31T08:00:31.163Z,4.48
2022-12-31T08:03:01.316Z,4.47
2022-12-31T08:05:31.008Z,4.47
2022-12-31T08:08:13.225Z,4.59
2022-12-31T08:11:00.894Z,4.62
2022-12-31T08:13:28.129Z,4.65
2022-12-31T08:15:55.327Z,4.77
2022-12-31T08:18:22.585Z,4.93
2022-12-31T08:21:01.322Z,5.01
2022-12-31T08:23:37.327Z,5.15
2022-12-31T08:26:23.185Z,5.09
2022-12-31T08:29:01.801Z,4.87
2022-12-31T08:31:35.951Z,4.81
2022-12-31T08:34:28.198Z,4.85
2022-12-31T08:37:20.485Z,4.94
2022-12-31T08:39:59.325Z,4.94
2022-12-31T08:42:36.735Z,4.94
2022-12-31T08:45:28.819Z,5.07
2022-12-31T08:48:05.491Z,5.13
2022-12-31T08:50:32.849Z,5.11
2022-12-31T08:53:00.307Z,5.24
2022-12-31T08:55:27.651Z,5.11
2022-12-31T08:58:15.386Z,5.22
2022-12-31T09:00:42.813Z,5.39
2022-12-31T09:03:24.588Z,5.65
2022-12-31T09:06:09.899Z,5.74
2022-12-31T09:08:46.020Z,5.82
2022-12-31T09:11:23.470Z,5.70
2022-12-31T09:14:05.270Z,5.74
2022-12-31T09:16:39.642Z,5.71
2022-12-31T09:19:08.376Z,5.82
2022-12-31T09:21:35.648Z,5.96
2022-12-31T09:24:09.156Z,5.94
2022-12-31T09:27:10.454Z,5.90
2022-12-31T09:30:05.384Z,5.74
2022-12-31T09:32:35.177Z,5.73
2022-12-31T09:35:03.968Z,5.91
2022-12-31T09:37:36.901Z,5.85
2022-12-31T09:40:25.527Z,5.95
2022-12-31T09:43:02.229Z,5.84
2022-12-31T09:45:34.879Z,5.89
2022-12-31T09:48:20.855Z,6.06
2022-12-31T09:50:59.505Z,6.03
2022-12-31T09:53:36.049Z,6.10
2022-12-31T09:56:12.631Z,6.07
2022-12-31T09:59:05.897Z,6.29
2022-12-31T10:02:02.324Z,6.22
2022-12-31T10:04:47.865Z,6.24
2022-12-31T10:07:33.443Z,6.25
2022-12-31T10:10:21.743Z,6.32
2022-12-31T10:13:29.670Z,6.31
2022-12-31T10:16:09.929Z,6.41
2022-12-31T10:18:58.352Z,6.49
2022-12-31T10:21:41.612Z,6.42
2022-12-31T10:24:44.669Z,6.55
2022-12-31T10:27:30.325Z,6.58
2022-12-31T10:30:13.269Z,6.81
2022-12-31T10:32:45.087Z,6.83
2022-12-31T10:35:41.215Z,6.72
2022-12-31T10:38:45.319Z,6.75
2022-12-31T10:41:54.412Z,6.72
2022-12-31T10:44:52.515Z,6.67
2022-12-31T10:47:28.152Z,6.62
2022-12-31T10:50:31.858Z,6.24
2022-12-31T10:53:29.744Z,6.49
2022-12-31T10:56:08.596Z,6.30
2022-12-31T10:58:38.108Z,6.32
2022-12-31T11:02:03.573Z,6.49
2022-12-31T11:05:22.853Z,6.60
2022-12-31T11:07:54.643Z,6.65
2022-12-31T11:10:39.903Z,6.46
2022-12-31T11:13:21.916Z,6.55
2022-12-31T11:16:07.738Z,6.36
2022-12-31T11:18:56.351Z,6.57
2022-12-31T11:22:18.712Z,6.46
2022-12-31T11:25:16.141Z,6.59
2022-12-31T11:28:04.488Z,6.63
2022-12-31T11:31:05.153Z,6.61
2022-12-31T11:34:05.134Z,6.62
2022-12-31T11:36:45.562Z,6.66
2022-12-31T11:39:53.904Z,6.76
2022-12-31T11:42:59.612Z,6.77
2022-12-31T11:46:00.310Z,6.81
2022-12-31T11:48:54.269Z,6.95
2022-12-31T11:51:42.168Z,6.94
2022-12-31T11:54:57.536Z,6.92
2022-12-31T11:57:34.719Z,6.83
2022-12-31T12:00:34.270Z,7.02
2022-12-31T12:03:04.648Z,6.99
2022-12-31T12:05:35.511Z,6.80
2022-12-31T12:08:03.057Z,6.85
2022-12-31T12:10:38.082Z,7.06
2022-12-31T12:13:31.247Z,7.11
2022-12-31T12:16:08.986Z,7.20
2022-12-31T12:18:49.678Z,7.28
2022-12-31T12:21:25.301Z,7.51
2022-12-31T12:24:02.626Z,7.19
2022-12-31T12:26:35.555Z,7.06
2022-12-31T12:29:12.087Z,7.35
2022-12-31T12:31:39.431Z,7.49
2022-12-31T12:34:21.112Z,7.46
2022-12-31T12:36:48.440Z,7.28
2022-12-31T12:39:20.826Z,7.46
2022-12-31T12:41:48.243Z,7.43
2022-12-31T12:44:16.787Z,7.54
2022-12-31T12:46:48.485Z,7.72
2022-12-31T12:49:25.930Z,7.64
2022-12-31T12:52:29.274Z,7.57
2022-12-31T12:55:35.009Z,7.67
2022-12-31T12:58:26.869Z,7.73
2022-12-31T13:01:36.794Z,7.70
2022-12-31T13:04:34.371Z,7.69
2022-12-31T13:07:29.165Z,7.86
2022-12-31T13:10:02.174Z,7.80
2022-12-31T13:15:53.948Z,7.72
2022-12-31T13:18:48.756Z,7.51
2022-12-31T13:21:27.836Z,7.55
2022-12-31T13:24:01.301Z,7.61
2022-12-31T13:26:34.450Z,7.76
2022-12-31T13:29:03.723Z,7.64
2022-12-31T13:31:35.415Z,7.66
2022-12-31T13:34:13.517Z,7.60
2022-12-31T13:36:43.135Z,7.69
2022-12-31T13:39:20.544Z,7.80
2022-12-31T13:41:58.926Z,7.79
2022-12-31T13:44:34.571Z,7.77
2022-12-31T13:47:12.805Z,7.63
2022-12-31T13:49:53.464Z,7.52
2022-12-31T13:52:40.150Z,7.48
2022-12-31T13:55:15.978Z,7.39
2022-12-31T13:57:48.247Z,7.40
2022-12-31T14:00:25.426Z,7.49
2022-12-31T14:03:14.119Z,7.57
2022-12-31T14:05:56.315Z,7.52
2022-12-31T14:08:23.450Z,7.58
2022-12-31T14:11:24.403Z,7.60
2022-12-31T14:14:06.374Z,7.50
2022-12-31T14:16:41.129Z,7.52
2022-12-31T14:19:32.342Z,7.57
2022-12-31T14:22:03.950Z,7.84
2022-12-31T14:24:43.482Z,7.84
2022-12-31T14:27:41.958Z,7.78
2022-12-31T14:30:22.285Z,7.82
2022-12-31T14:33:01.416Z,7.78
2022-12-31T14:35:31.426Z,7.73
2022-12-31T14:38:11.162Z,7.78
2022-12-31T14:40:56.750Z,7.85
2022-12-31T14:43:48.433Z,7.81
2022-12-31T14:46:29.831Z,7.55
2022-12-31T14:49:12.439Z,7.56
2022-12-31T14:51:39.509Z,7.49
2022-12-31T14:54:28.880Z,7.50
2022-12-31T14:56:56.398Z,7.47
2022-12-31T14:59:27.722Z,7.36
2022-12-31T15:01:56.974Z,7.37
2022-12-31T15:05:03.307Z,7.34
2022-12-31T15:07:48.343Z,7.30
2022-12-31T15:10:30.051Z,7.26
2022-12-31T15:13:07.577Z,7.34
2022-12-31T15:15:58.875Z,7.24
2022-12-31T15:18:38.727Z,7.25
2022-12-31T15:21:26.902Z,7.28
2022-12-31T15:23:54.692Z,7.27
2022-12-31T15:26:27.933Z,7.20
2022-12-31T15:29:02.912Z,7.18
2022-12-31T15:31:31.895Z,7.21
2022-12-31T15:34:07.864Z,7.24
2022-12-31T15:36:38.659Z,7.48
2022-12-31T15:39:11.691Z,7.52
2022-12-31T15:42:03.034Z,7.48
2022-12-31T15:44:43.641Z,7.39
2022-12-31T15:47:15.459Z,7.35
2022-12-31T15:49:46.457Z,7.34
2022-12-31T15:52:20.750Z,7.34
2022-12-31T15:54:55.462Z,7.31
2022-12-31T15:57:41.398Z,7.49
2022-12-31T16:00:21.204Z,7.49
2022-12-31T16:02:52.514Z,7.38
2022-12-31T16:05:27.697Z,7.38
2022-12-31T16:07:59.447Z,7.67
2022-12-31T16:10:31.977Z,7.80
2022-12-31T16:12:59.874Z,7.61
2022-12-31T16:15:30.571Z,7.57
2022-12-31T16:18:00.069Z,7.47
2022-12-31T16:20:32.770Z,7.41
2022-12-31T16:23:02.287Z,7.38
2022-12-31T16:25:32.918Z,7.31
2022-12-31T16:28:03.664Z,7.32
2022-12-31T16:30:37.532Z,7.34
2022-12-31T16:33:07.023Z,7.71
2022-12-31T16:35:36.809Z,7.72
2022-12-31T16:38:16.590Z,7.79
2022-12-31T16:41:01.578Z,7.57
2022-12-31T16:43:40.781Z,7.40
2022-12-31T16:46:27.945Z,7.28
2022-12-31T16:48:54.801Z,7.21
2022-12-31T16:51:25.934Z,7.07
2022-12-31T16:53:53.374Z,7.01
2022-12-31T16:56:33.802Z,6.95
2022-12-31T16:59:07.310Z,6.84
2022-12-31T17:01:37.481Z,6.79
2022-12-31T17:04:11.620Z,6.80
2022-12-31T17:06:38.801Z,6.77
2022-12-31T17:09:05.645Z,6.74
2022-12-31T17:11:41.905Z,6.70
2022-12-31T17:14:08.665Z,6.72
2022-12-31T17:16:38.465Z,6.65
2022-12-31T17:19:05.993Z,6.61
2022-12-31T17:21:33.622Z,6.57
2022-12-31T17:24:13.587Z,6.54
2022-12-31T17:26:40.752Z,6.54
2022-12-31T17:29:17.601Z,6.56
2022-12-31T17:32:05.661Z,6.56
2022-12-31T17:34:47.777Z,6.49
2022-12-31T17:37:27.338Z,6.47
2022-12-31T17:40:10.869Z,6.49
2022-12-31T17:42:46.354Z,6.51
2022-12-31T17:45:20.943Z,6.46
2022-12-31T17:47:55.669Z,6.43
2022-12-31T17:50:27.091Z,6.42
2022-12-31T17:53:10.836Z,6.43
2022-12-31T17:55:37.859Z,6.33
2022-12-31T17:58:06.546Z,6.39
2022-12-31T18:00:34.183Z,6.37
2022-12-31T18:03:01.375Z,6.32
2022-12-31T18:05:28.427Z,6.39
2022-12-31T18:07:55.563Z,6.34
2022-12-31T18:10:24.263Z,6.29
2022-12-31T18:12:51.647Z,6.35
2022-12-31T18:15:24.075Z,6.29
2022-12-31T18:17:51.333Z,6.73
2022-12-31T18:20:18.767Z,6.65
2022-12-31T18:22:46.079Z,6.48
2022-12-31T18:25:18.965Z,6.40
2022-12-31T18:27:46.370Z,6.35
2022-12-31T18:30:13.517Z,6.24
2022-12-31T18:32:41.653Z,6.11
2022-12-31T18:35:40.742Z,6.05
2022-12-31T18:38:11.708Z,6.03
2022-12-31T18:40:42.719Z,6.03
2022-12-31T18:43:16.507Z,6.06
2022-12-31T18:45:44.387Z,6.08
2022-12-31T18:48:11.859Z,6.10
2022-12-31T18:50:39.458Z,6.09
2022-12-31T18:53:07.072Z,6.04
2022-12-31T18:55:44.440Z,6.06
2022-12-31T18:58:11.508Z,6.07
2022-12-31T19:00:38.530Z,6.08
2022-12-31T19:03:05.726Z,6.15
2022-12-31T19:05:37.004Z,6.13
2022-12-31T19:08:04.263Z,6.11
2022-12-31T19:10:31.056Z,6.15
2022-12-31T19:12:58.173Z,6.10
2022-12-31T19:15:33.413Z,6.11
2022-12-31T19:18:01.725Z,6.10
2022-12-31T19:20:30.241Z,6.15
2022-12-31T19:22:57.846Z,6.12
2022-12-31T19:25:28.069Z,6.06
2022-12-31T19:27:55.156Z,6.06
2022-12-31T19:30:29.334Z,5.98
2022-12-31T19:32:56.395Z,5.89
2022-12-31T19:35:24.060Z,5.86
2022-12-31T19:37:52.535Z,5.81
2022-12-31T19:40:23.140Z,5.83
2022-12-31T19:42:51.480Z,5.71
2022-12-31T19:45:20.605Z,5.60
2022-12-31T19:47:48.031Z,5.65
2022-12-31T19:50:17.333Z,5.60
2022-12-31T19:52:45.716Z,5.52
2022-12-31T19:55:18.713Z,5.50
2022-12-31T19:57:47.169Z,5.53
2022-12-31T20:00:16.603Z,5.48
2022-12-31T20:02:45.595Z,5.52
2022-12-31T20:05:15.977Z,5.50
2022-12-31T20:07:43.280Z,5.46
2022-12-31T20:10:10.968Z,5.48
2022-12-31T20:12:44.138Z,5.37
2022-12-31T20:15:11.548Z,5.41
2022-12-31T20:17:38.723Z,5.34
2022-12-31T20:20:06.816Z,5.31
2022-12-31T20:22:33.983Z,5.26
2022-12-31T20:25:00.821Z,5.32
2022-12-31T20:27:28.021Z,5.28
2022-12-31T20:29:54.793Z,5.25
2022-12-31T20:32:21.820Z,5.14
2022-12-31T20:34:48.758Z,5.13
2022-12-31T20:37:16.020Z,5.00
2022-12-31T20:39:44.008Z,5.10
2022-12-31T20:42:11.292Z,5.06
2022-12-31T20:44:38.074Z,4.99
2022-12-31T20:47:05.117Z,4.91
2022-12-31T20:50:09.241Z,4.86
2022-12-31T20:52:18.933Z,4.76
2022-12-31T20:54:45.715Z,4.68
2022-12-31T20:57:12.793Z,4.68
2022-12-31T20:59:39.588Z,4.73
2022-12-31T21:02:26.520Z,4.70
2022-12-31T21:04:54.487Z,4.72
2022-12-31T21:07:21.717Z,4.77
2022-12-31T21:09:48.516Z,4.81
2022-12-31T21:12:34.543Z,4.70
2022-12-31T21:15:02.441Z,4.63
2022-12-31T21:17:29.532Z,4.59
2022-12-31T21:19:56.325Z,4.65
2022-12-31T21:22:24.171Z,4.73
2022-12-31T21:24:50.970Z,4.64
2022-12-31T21:27:18.054Z,4.61
2022-12-31T21:30:16.377Z,4.59
2022-12-31T21:32:31.875Z,4.58
2022-12-31T21:35:31.462Z,4.64
2022-12-31T21:37:58.643Z,4.71
2022-12-31T21:40:27.927Z,4.74
2022-12-31T21:42:55.057Z,4.76
2022-12-31T21:45:22.111Z,4.78
2022-12-31T21:48:07.672Z,4.78
2022-12-31T21:50:34.645Z,4.75
2022-12-31T21:53:01.835Z,4.71
2022-12-31T21:55:47.190Z,4.69
2022-12-31T21:58:25.831Z,4.63
2022-12-31T22:01:12.435Z,4.58
2022-12-31T22:03:39.832Z,4.59
2022-12-31T22:06:10.422Z,4.57
2022-12-31T22:08:38.873Z,4.63
2022-12-31T22:11:06.539Z,4.53
2022-12-31T22:13:34.807Z,4.50
2022-12-31T22:16:05.734Z,4.48
2022-12-31T22:18:35.792Z,4.35
2022-12-31T22:21:18.918Z,4.42
2022-12-31T22:23:51.842Z,4.42
2022-12-31T22:26:23.666Z,4.37
2022-12-31T22:28:51.442Z,4.40
2022-12-31T22:31:21.681Z,4.31
2022-12-31T22:33:48.922Z,4.31
2022-12-31T22:36:20.680Z,4.23
2022-12-31T22:38:49.269Z,4.20
2022-12-31T22:41:19.257Z,4.23
2022-12-31T22:43:49.326Z,4.23
2022-12-31T22:46:22.247Z,4.29
2022-12-31T22:48:50.767Z,4.19
2022-12-31T22:51:18.873Z,4.12
2022-12-31T22:53:46.937Z,4.05
2022-12-31T22:56:16.603Z,4.00
2022-12-31T22:58:44.567Z,4.11
2022-12-31T23:01:19.596Z,3.99
2022-12-31T23:03:47.475Z,3.91
2022-12-31T23:06:14.700Z,3.95
2022-12-31T23:09:02.204Z,3.99
2022-12-31T23:11:29.763Z,3.87
2022-12-31T23:14:15.718Z,3.94
2022-12-31T23:17:01.024Z,3.94
2022-12-31T23:20:06.625Z,3.93
2022-12-31T23:22:52.587Z,3.87
2022-12-31T23:25:19.896Z,3.80
2022-12-31T23:27:46.702Z,3.82
2022-12-31T23:30:13.977Z,3.76
2022-12-31T23:32:40.808Z,3.71
2022-12-31T23:35:10.021Z,3.78
2022-12-31T23:37:37.051Z,3.79
2022-12-31T23:40:04.643Z,3.65
2022-12-31T23:42:31.556Z,3.64
2022-12-31T23:44:58.701Z,3.66
2022-12-31T23:47:25.526Z,3.60
2022-12-31T23:49:52.661Z,3.66
2022-12-31T23:52:19.609Z,3.66
2022-12-31T23:54:46.697Z,3.60
2022-12-31T23:57:13.500Z,3.55
2022-12-31T23:59:40.676Z,3.54
